createdAt,value
2019-05-14T00:01:27.257Z,1.90
2019-05-14T00:03:53.985Z,1.60
2019-05-14T00:06:21.902Z,1.70
2019-05-14T00:08:47.470Z,1.80
2019-05-14T00:11:14.195Z,1.90
2019-05-14T00:13:41.304Z,2.00
2019-05-14T00:16:07.665Z,1.93
2019-05-14T00:18:34.402Z,1.90
2019-05-14T00:21:01.875Z,1.60
2019-05-14T00:23:27.910Z,1.70
2019-05-14T00:25:54.644Z,1.90
2019-05-14T00:28:21.371Z,2.60
2019-05-14T00:30:48.131Z,1.80
2019-05-14T00:33:14.862Z,2.30
2019-05-14T00:35:41.615Z,2.00
2019-05-14T00:38:08.335Z,2.33
2019-05-14T00:40:35.073Z,2.00
2019-05-14T00:43:02.703Z,2.00
2019-05-14T00:45:28.666Z,2.30
2019-05-14T00:47:55.398Z,1.70
2019-05-14T00:50:22.139Z,1.97
2019-05-14T00:52:48.869Z,3.33
2019-05-14T00:55:15.610Z,1.80
2019-05-14T00:57:42.814Z,2.00
2019-05-14T01:00:11.501Z,2.10
2019-05-14T01:02:35.842Z,1.90
2019-05-14T01:05:02.711Z,2.97
2019-05-14T01:07:31.508Z,2.03
2019-05-14T01:09:56.206Z,2.30
2019-05-14T01:12:22.937Z,1.70
2019-05-14T01:14:52.944Z,2.00
2019-05-14T01:17:16.417Z,2.10
2019-05-14T01:19:43.162Z,1.95
2019-05-14T01:22:12.226Z,2.17
2019-05-14T01:24:36.629Z,2.50
2019-05-14T01:27:03.442Z,1.90
2019-05-14T01:29:31.676Z,1.93
2019-05-14T01:31:57.014Z,1.77
2019-05-14T01:34:23.875Z,2.30
2019-05-14T01:36:52.763Z,2.00
2019-05-14T01:39:17.358Z,1.93
2019-05-14T01:41:44.096Z,1.53
2019-05-14T01:44:11.976Z,2.23
2019-05-14T01:46:37.622Z,2.20
2019-05-14T01:49:04.342Z,2.20
2019-05-14T01:51:31.739Z,1.93
2019-05-14T01:53:57.814Z,2.10
2019-05-14T01:56:24.569Z,2.17
2019-05-14T01:58:52.278Z,2.90
2019-05-14T02:01:18.058Z,2.40
2019-05-14T02:03:44.782Z,2.23
2019-05-14T02:06:11.917Z,2.10
2019-05-14T02:08:38.258Z,2.10
2019-05-14T02:11:05.016Z,2.00
2019-05-14T02:13:32.258Z,2.53
2019-05-14T02:15:58.486Z,2.00
2019-05-14T02:18:25.210Z,1.80
2019-05-14T02:20:52.287Z,1.73
2019-05-14T02:23:18.690Z,2.30
2019-05-14T02:25:45.422Z,2.10
2019-05-14T02:28:12.137Z,1.97
2019-05-14T02:30:52.572Z,2.50
2019-05-14T02:33:05.619Z,2.30
2019-05-14T02:35:32.359Z,2.20
2019-05-14T02:37:59.755Z,2.17
2019-05-14T02:40:29.213Z,1.70
2019-05-14T02:42:52.592Z,2.13
2019-05-14T02:45:19.990Z,2.07
2019-05-14T02:47:46.138Z,2.00
2019-05-14T02:50:12.864Z,2.00
2019-05-14T02:52:40.468Z,1.97
2019-05-14T02:55:09.180Z,2.03
2019-05-14T02:57:33.067Z,2.07
2019-05-14T02:59:59.913Z,2.30
2019-05-14T03:02:29.465Z,2.73
2019-05-14T03:04:53.239Z,2.00
2019-05-14T03:07:19.981Z,2.20
2019-05-14T03:09:49.853Z,2.27
2019-05-14T03:12:13.459Z,2.33
2019-05-14T03:14:40.380Z,2.53
2019-05-14T03:17:10.055Z,2.10
2019-05-14T03:19:33.688Z,2.37
2019-05-14T03:22:00.551Z,2.40
2019-05-14T03:24:28.886Z,2.00
2019-05-14T03:26:53.911Z,2.63
2019-05-14T03:29:20.636Z,1.90
2019-05-14T03:31:52.616Z,2.30
2019-05-14T03:34:14.603Z,2.10
2019-05-14T03:36:42.803Z,2.03
2019-05-14T03:39:10.498Z,2.60
2019-05-14T03:41:34.410Z,2.63
2019-05-14T03:44:01.123Z,1.70
2019-05-14T03:46:44.221Z,2.30
2019-05-14T03:48:54.584Z,2.00
2019-05-14T03:51:21.589Z,1.77
2019-05-14T03:53:56.992Z,2.00
2019-05-14T03:56:15.079Z,2.10
2019-05-14T03:58:41.833Z,1.93
2019-05-14T04:01:09.708Z,1.90
2019-05-14T04:03:35.410Z,1.93
2019-05-14T04:06:02.251Z,2.00
2019-05-14T04:08:29.662Z,2.10
2019-05-14T04:10:59.005Z,2.17
2019-05-14T04:13:22.916Z,2.20
2019-05-14T04:15:49.970Z,2.40
2019-05-14T04:18:18.498Z,2.23
2019-05-14T04:20:43.191Z,2.07
2019-05-14T04:23:09.919Z,2.20
2019-05-14T04:25:39.044Z,2.23
2019-05-14T04:28:03.603Z,1.97
2019-05-14T04:30:30.550Z,1.90
2019-05-14T04:32:59.393Z,1.93
2019-05-14T04:35:24.035Z,2.03
2019-05-14T04:37:50.764Z,1.90
2019-05-14T04:40:18.979Z,1.90
2019-05-14T04:42:44.271Z,1.67
2019-05-14T04:45:11.583Z,1.90
2019-05-14T04:47:42.069Z,2.13
2019-05-14T04:50:05.039Z,1.83
2019-05-14T04:52:31.822Z,2.20
2019-05-14T04:54:59.363Z,2.17
2019-05-14T04:57:25.814Z,1.80
2019-05-14T04:59:52.171Z,1.63
2019-05-14T05:02:19.805Z,1.63
2019-05-14T05:04:50.305Z,1.97
2019-05-14T05:07:12.426Z,1.70
2019-05-14T05:09:39.955Z,1.80
2019-05-14T05:12:08.850Z,1.77
2019-05-14T05:14:32.825Z,1.77
2019-05-14T05:16:59.904Z,2.03
2019-05-14T05:19:28.857Z,1.90
2019-05-14T05:21:53.045Z,1.77
2019-05-14T05:24:19.826Z,1.80
2019-05-14T05:26:48.576Z,1.67
2019-05-14T05:29:13.300Z,1.57
2019-05-14T05:31:40.030Z,1.90
2019-05-14T05:34:08.962Z,1.90
2019-05-14T05:36:33.529Z,1.90
2019-05-14T05:39:00.267Z,2.00
2019-05-14T05:41:28.252Z,1.40
2019-05-14T05:43:53.726Z,2.07
2019-05-14T05:46:20.458Z,1.80
2019-05-14T05:48:48.210Z,1.87
2019-05-14T05:51:13.942Z,1.83
2019-05-14T05:53:40.690Z,1.57
2019-05-14T05:56:09.012Z,1.70
2019-05-14T05:58:34.167Z,1.87
2019-05-14T06:01:00.887Z,1.70
2019-05-14T06:03:30.112Z,1.93
2019-05-14T06:05:54.361Z,1.60
2019-05-14T06:08:21.101Z,2.37
2019-05-14T06:10:48.978Z,1.33
2019-05-14T06:13:14.640Z,1.63
2019-05-14T06:15:47.917Z,1.90
2019-05-14T06:18:15.236Z,1.90
2019-05-14T06:20:34.859Z,1.80
2019-05-14T06:23:01.591Z,1.90
2019-05-14T06:25:31.284Z,3.03
2019-05-14T06:27:55.054Z,2.27
2019-05-14T06:30:33.475Z,1.70
2019-05-14T06:33:00.206Z,1.70
2019-05-14T06:35:28.457Z,2.10
2019-05-14T06:37:53.666Z,2.20
2019-05-14T06:40:20.416Z,2.00
2019-05-14T06:42:48.608Z,2.10
2019-05-14T06:45:13.869Z,1.87
2019-05-14T06:47:40.603Z,1.97
2019-05-14T06:50:08.589Z,1.77
2019-05-14T06:52:34.074Z,2.40
2019-05-14T06:55:00.823Z,2.00
2019-05-14T06:57:28.548Z,2.00
2019-05-14T06:59:54.293Z,1.80
2019-05-14T07:02:21.026Z,1.83
2019-05-14T07:04:48.420Z,2.20
2019-05-14T07:07:14.502Z,2.07
2019-05-14T07:09:41.248Z,2.10
2019-05-14T07:12:09.057Z,2.13
2019-05-14T07:14:34.686Z,2.00
2019-05-14T07:17:01.434Z,1.60
2019-05-14T07:19:29.478Z,2.30
2019-05-14T07:21:54.902Z,2.22
2019-05-14T07:24:21.646Z,2.50
2019-05-14T07:26:49.411Z,2.00
2019-05-14T07:29:15.153Z,2.12
2019-05-14T07:31:41.866Z,2.30
2019-05-14T07:34:08.992Z,2.20
2019-05-14T07:36:35.338Z,2.20
2019-05-14T07:39:02.114Z,2.00
2019-05-14T07:41:28.845Z,1.80
2019-05-14T07:43:55.554Z,2.47
2019-05-14T07:46:22.374Z,2.37
2019-05-14T07:49:03.526Z,2.43
2019-05-14T07:51:15.835Z,2.70
2019-05-14T07:53:42.749Z,2.30
2019-05-14T07:56:09.610Z,2.40
2019-05-14T07:58:38.473Z,2.33
2019-05-14T08:01:02.748Z,2.50
2019-05-14T08:03:29.546Z,2.60
2019-05-14T08:05:58.662Z,2.00
2019-05-14T08:08:23.005Z,2.50
2019-05-14T08:10:49.743Z,1.90
2019-05-14T08:13:18.875Z,2.60
2019-05-14T08:15:43.206Z,2.00
2019-05-14T08:18:09.917Z,2.30
2019-05-14T08:20:37.959Z,3.00
2019-05-14T08:23:03.411Z,2.40
2019-05-14T08:25:30.149Z,2.40
2019-05-14T08:27:58.664Z,2.60
2019-05-14T08:30:23.642Z,2.60
2019-05-14T08:32:50.363Z,2.60
2019-05-14T08:35:18.536Z,2.50
2019-05-14T08:37:43.822Z,2.20
2019-05-14T08:40:10.567Z,2.17
2019-05-14T08:42:38.328Z,2.00
2019-05-14T08:45:04.764Z,1.87
2019-05-14T08:47:30.835Z,2.47
2019-05-14T08:49:59.894Z,2.47
2019-05-14T08:52:24.291Z,2.00
2019-05-14T08:55:05.360Z,2.40
2019-05-14T08:57:18.984Z,2.30
2019-05-14T08:59:44.526Z,1.97
2019-05-14T09:02:11.254Z,2.13
2019-05-14T09:04:43.090Z,2.20
2019-05-14T09:07:04.776Z,2.12
2019-05-14T09:09:31.498Z,1.93
2019-05-14T09:11:59.956Z,1.60
2019-05-14T09:14:24.946Z,2.10
2019-05-14T09:16:51.738Z,1.47
2019-05-14T09:19:19.243Z,2.20
2019-05-14T09:21:45.167Z,2.10
2019-05-14T09:24:11.906Z,2.37
2019-05-14T09:26:39.103Z,2.80
2019-05-14T09:29:18.132Z,2.60
2019-05-14T09:31:32.142Z,2.10
2019-05-14T09:33:58.879Z,2.70
2019-05-14T09:36:25.593Z,2.20
2019-05-14T09:38:52.322Z,1.97
2019-05-14T09:41:19.226Z,1.97
2019-05-14T09:43:48.407Z,2.20
2019-05-14T09:46:12.721Z,1.80
2019-05-14T09:48:39.442Z,1.40
2019-05-14T09:51:06.198Z,1.70
2019-05-14T09:53:32.921Z,1.80
2019-05-14T09:55:59.646Z,2.03
2019-05-14T09:58:28.268Z,1.57
2019-05-14T10:00:53.112Z,1.80
2019-05-14T10:03:19.874Z,2.00
2019-05-14T10:05:46.601Z,1.90
2019-05-14T10:08:13.358Z,2.00
2019-05-14T10:10:40.292Z,1.97
2019-05-14T10:13:09.701Z,1.50
2019-05-14T10:15:33.734Z,2.00
2019-05-14T10:18:00.680Z,1.50
2019-05-14T10:20:40.238Z,1.50
2019-05-14T10:22:53.988Z,1.80
2019-05-14T10:25:20.714Z,1.60
2019-05-14T10:27:48.581Z,1.80
2019-05-14T10:30:14.198Z,1.30
2019-05-14T10:32:41.831Z,1.77
2019-05-14T10:35:10.233Z,1.47
2019-05-14T10:37:39.793Z,1.50
2019-05-14T10:40:04.567Z,1.30
2019-05-14T10:42:31.299Z,1.33
2019-05-14T10:44:58.754Z,1.30
2019-05-14T10:47:24.758Z,1.70
2019-05-14T10:49:51.527Z,1.50
2019-05-14T10:52:19.769Z,1.50
2019-05-14T10:54:55.441Z,1.70
2019-05-14T10:57:11.720Z,1.82
2019-05-14T10:59:38.465Z,1.57
2019-05-14T11:02:05.177Z,1.50
2019-05-14T11:04:34.415Z,1.70
2019-05-14T11:06:58.690Z,1.37
2019-05-14T11:09:25.386Z,1.50
2019-05-14T11:11:52.121Z,1.60
2019-05-14T11:14:19.371Z,1.47
2019-05-14T11:16:45.592Z,1.10
2019-05-14T11:19:12.358Z,1.60
2019-05-14T11:21:39.342Z,1.50
2019-05-14T11:24:05.830Z,1.60
2019-05-14T11:26:32.663Z,1.50
2019-05-14T11:28:59.411Z,1.60
2019-05-14T11:31:26.135Z,1.50
2019-05-14T11:33:52.880Z,1.20
2019-05-14T11:36:19.605Z,1.53
2019-05-14T11:38:46.678Z,1.43
2019-05-14T11:41:13.490Z,1.43
2019-05-14T11:43:40.239Z,1.50
2019-05-14T11:46:08.582Z,1.10
2019-05-14T11:48:33.740Z,1.67
2019-05-14T11:51:00.484Z,1.40
2019-05-14T11:53:27.247Z,1.50
2019-05-14T11:55:53.974Z,1.30
2019-05-14T11:58:21.565Z,1.30
2019-05-14T12:00:47.467Z,1.77
2019-05-14T12:03:14.236Z,1.43
2019-05-14T12:05:41.017Z,1.30
2019-05-14T12:08:08.687Z,1.57
2019-05-14T12:10:34.432Z,1.70
2019-05-14T12:13:01.197Z,1.50
2019-05-14T12:15:27.920Z,1.47
2019-05-14T12:17:54.675Z,1.37
2019-05-14T12:20:21.367Z,1.90
2019-05-14T12:22:48.739Z,1.37
2019-05-14T12:25:14.914Z,1.37
2019-05-14T12:27:41.644Z,1.50
2019-05-14T12:30:09.649Z,1.40
2019-05-14T12:32:35.380Z,1.60
2019-05-14T12:35:02.233Z,1.20
2019-05-14T12:37:29.029Z,1.43
2019-05-14T12:39:55.710Z,1.50
2019-05-14T12:42:22.430Z,1.47
2019-05-14T12:44:49.178Z,1.07
2019-05-14T12:47:18.564Z,1.20
2019-05-14T12:49:42.652Z,0.97
2019-05-14T12:52:19.130Z,1.20
2019-05-14T12:54:38.463Z,1.17
2019-05-14T12:57:02.862Z,1.20
2019-05-14T12:59:29.623Z,1.10
2019-05-14T13:01:58.506Z,1.33
2019-05-14T13:04:23.110Z,1.10
2019-05-14T13:06:49.826Z,1.30
2019-05-14T13:09:21.351Z,1.10
2019-05-14T13:11:43.291Z,1.47
2019-05-14T13:14:10.058Z,1.30
2019-05-14T13:16:39.471Z,1.50
2019-05-14T13:19:03.553Z,0.93
2019-05-14T13:21:30.279Z,1.10
2019-05-14T13:23:57.019Z,1.47
2019-05-14T13:26:23.906Z,1.17
2019-05-14T13:28:51.217Z,1.17
2019-05-14T13:33:48.913Z,1.07
2019-05-14T13:36:13.743Z,1.10
2019-05-14T13:38:40.532Z,1.00
2019-05-14T13:41:08.692Z,0.90
2019-05-14T13:43:34.052Z,1.20
2019-05-14T13:46:00.872Z,0.93
2019-05-14T13:48:29.641Z,1.00
2019-05-14T13:50:54.377Z,1.13
2019-05-14T13:53:21.074Z,1.10
2019-05-14T13:55:56.805Z,1.67
2019-05-14T13:58:14.811Z,1.10
2019-05-14T14:00:41.542Z,1.07
2019-05-14T14:03:10.163Z,0.87
2019-05-14T14:05:35.005Z,1.10
2019-05-14T14:08:01.726Z,1.20
2019-05-14T14:10:35.585Z,0.90
2019-05-14T14:12:55.198Z,1.77
2019-05-14T14:15:21.950Z,0.90
2019-05-14T14:17:49.524Z,0.83
2019-05-14T14:20:15.440Z,0.90
2019-05-14T14:22:42.155Z,0.90
2019-05-14T14:25:09.274Z,1.20
2019-05-14T14:27:35.634Z,1.07
2019-05-14T14:30:02.417Z,0.90
2019-05-14T14:32:29.515Z,1.10
2019-05-14T14:34:58.764Z,1.00
2019-05-14T14:37:22.991Z,0.80
2019-05-14T14:39:49.746Z,0.87
2019-05-14T14:42:19.258Z,0.87
2019-05-14T14:44:43.252Z,0.90
2019-05-14T14:47:09.966Z,1.07
2019-05-14T14:49:42.278Z,1.00
2019-05-14T14:52:03.441Z,1.13
2019-05-14T14:54:30.161Z,1.17
2019-05-14T14:56:59.069Z,0.80
2019-05-14T14:59:23.674Z,0.97
2019-05-14T15:01:50.532Z,1.30
2019-05-14T15:04:19.318Z,1.30
2019-05-14T15:06:43.934Z,1.37
2019-05-14T15:09:10.676Z,1.30
2019-05-14T15:11:39.653Z,1.22
2019-05-14T15:14:04.297Z,1.00
2019-05-14T15:16:31.060Z,1.20
2019-05-14T15:18:58.344Z,1.10
2019-05-14T15:21:24.693Z,0.90
2019-05-14T15:24:05.589Z,0.83
2019-05-14T15:26:19.356Z,1.20
2019-05-14T15:28:44.959Z,1.20
2019-05-14T15:31:11.812Z,0.90
2019-05-14T15:33:38.532Z,1.10
2019-05-14T15:36:05.290Z,1.10
2019-05-14T15:38:32.033Z,0.90
2019-05-14T15:40:59.656Z,0.90
2019-05-14T15:43:28.503Z,1.30
2019-05-14T15:45:52.603Z,1.10
2019-05-14T15:48:20.034Z,0.90
2019-05-14T15:50:46.127Z,1.00
2019-05-14T15:53:12.866Z,0.90
2019-05-14T15:55:39.622Z,1.13
2019-05-14T15:58:08.760Z,1.10
2019-05-14T16:00:33.215Z,1.10
2019-05-14T16:03:00.361Z,1.00
2019-05-14T16:05:28.480Z,1.17
2019-05-14T16:07:53.547Z,1.00
2019-05-14T16:10:21.721Z,1.00
2019-05-14T16:12:49.598Z,1.00
2019-05-14T16:15:13.854Z,0.90
2019-05-14T16:18:04.256Z,1.20
2019-05-14T16:20:09.043Z,0.83
2019-05-14T16:22:34.267Z,0.90
2019-05-14T16:25:01.226Z,0.90
2019-05-14T16:27:29.790Z,0.80
2019-05-14T16:29:54.469Z,1.00
2019-05-14T16:32:21.218Z,1.10
2019-05-14T16:34:48.863Z,1.10
2019-05-14T16:37:14.699Z,1.10
2019-05-14T16:39:41.425Z,1.53
2019-05-14T16:42:08.210Z,1.07
2019-05-14T16:44:35.038Z,1.07
2019-05-14T16:47:01.813Z,1.40
2019-05-14T16:49:29.573Z,0.90
2019-05-14T16:51:55.380Z,1.10
2019-05-14T16:54:22.141Z,0.93
2019-05-14T16:56:48.950Z,1.10
2019-05-14T16:59:15.673Z,1.10
2019-05-14T17:01:42.418Z,1.03
2019-05-14T17:04:09.415Z,0.97
2019-05-14T17:06:38.442Z,1.13
2019-05-14T17:09:03.214Z,1.17
2019-05-14T17:11:29.943Z,1.07
2019-05-14T17:13:58.004Z,1.90
2019-05-14T17:16:23.446Z,1.67
2019-05-14T17:18:50.170Z,1.10
2019-05-14T17:21:18.274Z,1.00
2019-05-14T17:23:43.650Z,0.93
2019-05-14T17:26:10.406Z,1.50
2019-05-14T17:28:40.102Z,1.83
2019-05-14T17:31:03.889Z,1.80
2019-05-14T17:33:30.618Z,1.80
2019-05-14T17:35:58.668Z,1.57
2019-05-14T17:38:24.088Z,1.53
2019-05-14T17:40:50.814Z,1.70
2019-05-14T17:43:19.156Z,1.47
2019-05-14T17:45:44.403Z,1.10
2019-05-14T17:48:11.223Z,0.97
2019-05-14T17:50:38.520Z,1.00
2019-05-14T17:53:04.675Z,0.90
2019-05-14T17:55:43.488Z,1.00
2019-05-14T17:58:00.058Z,0.80
2019-05-14T18:00:24.909Z,1.10
2019-05-14T18:02:51.645Z,0.90
2019-05-14T18:05:18.855Z,0.93
2019-05-14T18:07:45.225Z,1.10
2019-05-14T18:10:11.957Z,0.90
2019-05-14T18:12:39.911Z,1.00
2019-05-14T18:15:05.445Z,0.90
2019-05-14T18:17:32.263Z,1.00
2019-05-14T18:19:59.009Z,0.97
2019-05-14T18:22:28.459Z,0.90
2019-05-14T18:24:52.481Z,1.00
2019-05-14T18:27:19.649Z,1.17
2019-05-14T18:29:48.683Z,0.90
2019-05-14T18:32:12.681Z,1.00
2019-05-14T18:34:39.428Z,0.83
2019-05-14T18:37:13.456Z,1.20
2019-05-14T18:39:32.942Z,1.03
2019-05-14T18:42:00.613Z,1.30
2019-05-14T18:44:28.410Z,1.40
2019-05-14T18:46:53.146Z,2.13
2019-05-14T18:49:19.883Z,2.50
2019-05-14T18:51:46.602Z,2.47
2019-05-14T18:54:13.335Z,2.60
2019-05-14T18:56:40.051Z,3.00
2019-05-14T18:59:08.893Z,3.20
2019-05-14T19:01:33.544Z,3.07
2019-05-14T19:04:00.350Z,2.60
2019-05-14T19:06:28.350Z,1.93
2019-05-14T19:08:53.914Z,1.37
2019-05-14T19:11:20.795Z,1.33
2019-05-14T19:13:48.407Z,1.17
2019-05-14T19:16:14.254Z,1.13
2019-05-14T19:18:40.971Z,0.90
2019-05-14T19:21:08.917Z,1.00
2019-05-14T19:23:35.397Z,1.00
2019-05-14T19:26:02.246Z,1.07
2019-05-14T19:28:29.008Z,0.77
2019-05-14T19:30:55.739Z,0.93
2019-05-14T19:33:22.458Z,0.97
2019-05-14T19:35:49.195Z,1.20
2019-05-14T19:38:17.936Z,0.80
2019-05-14T19:40:42.814Z,0.80
2019-05-14T19:43:09.601Z,1.03
2019-05-14T19:45:38.425Z,1.20
2019-05-14T19:48:03.090Z,1.00
2019-05-14T19:50:29.847Z,1.00
2019-05-14T19:52:58.806Z,1.40
2019-05-14T19:55:23.294Z,1.50
2019-05-14T19:57:50.029Z,1.53
2019-05-14T20:00:21.733Z,1.33
2019-05-14T20:02:48.764Z,1.20
2019-05-14T20:05:15.194Z,1.10
2019-05-14T20:07:42.022Z,1.00
2019-05-14T20:10:08.991Z,1.00
2019-05-14T20:12:35.475Z,1.20
2019-05-14T20:15:02.259Z,1.07
2019-05-14T20:17:28.997Z,1.33
2019-05-14T20:19:57.843Z,1.57
2019-05-14T20:22:22.457Z,1.30
2019-05-14T20:24:49.182Z,1.40
2019-05-14T20:27:15.959Z,1.20
2019-05-14T20:29:42.667Z,1.13
2019-05-14T20:32:09.406Z,1.10
2019-05-14T20:34:36.117Z,1.13
2019-05-14T20:37:02.874Z,0.97
2019-05-14T20:39:32.977Z,1.20
2019-05-14T20:41:58.372Z,1.80
2019-05-14T20:44:23.075Z,1.10
2019-05-14T20:46:49.826Z,1.00
2019-05-14T20:49:18.868Z,1.10
2019-05-14T20:51:43.294Z,0.97
2019-05-14T20:54:10.019Z,1.00
2019-05-14T20:56:36.769Z,1.30
2019-05-14T20:59:03.497Z,1.20
2019-05-14T21:01:30.242Z,1.10
2019-05-14T21:03:59.087Z,1.00
2019-05-14T21:06:23.706Z,1.30
2019-05-14T21:08:50.435Z,1.07
2019-05-14T21:11:19.116Z,1.13
2019-05-14T21:13:43.902Z,1.10
2019-05-14T21:16:10.865Z,1.30
2019-05-14T21:18:40.906Z,1.13
2019-05-14T21:21:04.270Z,1.33
2019-05-14T21:23:30.982Z,1.17
2019-05-14T21:25:57.862Z,1.10
2019-05-14T21:28:24.654Z,1.10
2019-05-14T21:30:51.387Z,1.10
2019-05-14T21:33:18.117Z,1.37
2019-05-14T21:35:44.834Z,1.30
2019-05-14T21:38:11.598Z,1.10
2019-05-14T21:40:39.018Z,1.37
2019-05-14T21:43:05.063Z,1.13
2019-05-14T21:45:31.770Z,1.27
2019-05-14T21:47:59.427Z,1.13
2019-05-14T21:50:25.354Z,1.40
2019-05-14T21:52:52.102Z,1.20
2019-05-14T21:55:19.866Z,1.40
2019-05-14T21:57:54.337Z,1.50
2019-05-14T22:00:18.417Z,1.23
2019-05-14T22:02:42.533Z,1.20
2019-05-14T22:05:09.608Z,1.40
2019-05-14T22:07:35.990Z,1.07
2019-05-14T22:10:03.121Z,1.40
2019-05-14T22:12:29.854Z,1.43
2019-05-14T22:14:58.845Z,1.10
2019-05-14T22:17:23.318Z,1.83
2019-05-14T22:19:50.047Z,1.63
2019-05-14T22:22:18.668Z,1.83
2019-05-14T22:24:43.543Z,1.33
2019-05-14T22:27:10.287Z,2.40
2019-05-14T22:29:37.009Z,2.40
2019-05-14T22:32:03.754Z,2.03
2019-05-14T22:34:30.475Z,2.40
2019-05-14T22:36:58.122Z,2.83
2019-05-14T22:39:23.942Z,3.07
2019-05-14T22:41:50.685Z,3.20
2019-05-14T22:44:18.699Z,3.27
2019-05-14T22:46:44.133Z,3.13
2019-05-14T22:49:10.875Z,3.50
2019-05-14T22:51:38.338Z,3.40
2019-05-14T22:54:04.336Z,3.60
2019-05-14T22:56:31.062Z,3.53
2019-05-14T22:58:58.289Z,3.30
2019-05-14T23:01:24.511Z,3.80
2019-05-14T23:03:51.247Z,2.73
2019-05-14T23:06:18.831Z,2.40
2019-05-14T23:08:44.722Z,1.90
2019-05-14T23:11:11.453Z,2.07
2019-05-14T23:13:39.194Z,1.90
2019-05-14T23:16:04.947Z,1.53
2019-05-14T23:18:31.690Z,1.80
2019-05-14T23:20:58.955Z,2.17
2019-05-14T23:23:25.162Z,1.50
2019-05-14T23:25:51.895Z,1.30
2019-05-14T23:28:19.222Z,1.40
2019-05-14T23:30:45.372Z,1.77
2019-05-14T23:33:12.114Z,1.80
2019-05-14T23:35:39.193Z,1.90
2019-05-14T23:38:05.583Z,1.40
2019-05-14T23:40:32.314Z,1.90
2019-05-14T23:42:59.061Z,1.90
2019-05-14T23:45:25.786Z,1.67
2019-05-14T23:47:52.506Z,1.93
2019-05-14T23:50:19.242Z,1.80
2019-05-14T23:52:45.980Z,1.60
2019-05-14T23:55:12.703Z,2.00
2019-05-14T23:57:39.502Z,2.20
